createdAt,value
2023-01-13T00:00:20.225Z,100311.38
2023-01-13T00:05:46.990Z,100311.38
2023-01-13T00:10:55.186Z,100308.78
2023-01-13T00:16:05.040Z,100312.22
2023-01-13T00:21:17.183Z,100307.91
2023-01-13T00:26:27.783Z,100297.53
2023-01-13T00:31:36.469Z,100298.41
2023-01-13T00:36:43.067Z,100300.09
2023-01-13T00:42:08.509Z,100297.53
2023-01-13T00:47:15.086Z,100299.25
2023-01-13T00:52:21.659Z,100294.94
2023-01-13T00:57:29.633Z,100288.91
2023-01-13T01:02:37.285Z,100284.56
2023-01-13T01:07:44.315Z,100272.53
2023-01-13T01:12:53.025Z,100272.56
2023-01-13T01:17:59.405Z,100271.75
2023-01-13T01:23:05.910Z,100265.66
2023-01-13T01:28:13.711Z,100262.22
2023-01-13T01:33:20.815Z,100260.47
2023-01-13T01:38:27.885Z,100240.63
2023-01-13T01:44:03.873Z,100238.00
2023-01-13T01:49:17.740Z,100229.41
2023-01-13T01:54:29.203Z,100224.22
2023-01-13T01:59:40.024Z,100225.13
2023-01-13T02:04:51.954Z,100221.63
2023-01-13T02:10:03.107Z,100220.78
2023-01-13T02:15:15.016Z,100220.75
2023-01-13T02:21:04.180Z,100213.84
2023-01-13T02:27:08.764Z,100206.06
2023-01-13T02:32:27.798Z,100198.28
2023-01-13T02:37:39.462Z,100197.41
2023-01-13T02:43:12.251Z,100197.38
2023-01-13T02:48:25.915Z,100195.66
2023-01-13T02:53:37.798Z,100182.75
2023-01-13T02:58:47.435Z,100185.34
2023-01-13T03:03:55.125Z,100186.16
2023-01-13T03:09:10.379Z,100187.91
2023-01-13T03:14:35.103Z,100172.41
2023-01-13T03:19:52.279Z,100172.41
2023-01-13T03:25:08.818Z,100176.66
2023-01-13T03:30:21.153Z,100174.91
2023-01-13T03:35:34.369Z,100175.78
2023-01-13T03:40:46.069Z,100161.13
2023-01-13T03:45:58.265Z,100160.25
2023-01-13T03:51:13.322Z,100158.50
2023-01-13T03:56:27.509Z,100157.66
2023-01-13T04:01:44.158Z,100158.50
2023-01-13T04:06:58.121Z,100157.63
2023-01-13T04:12:13.949Z,100156.72
2023-01-13T04:17:21.280Z,100153.25
2023-01-13T04:22:29.137Z,100157.59
2023-01-13T04:27:37.016Z,100156.75
2023-01-13T04:32:43.341Z,100143.78
2023-01-13T04:37:51.249Z,100146.38
2023-01-13T04:42:58.168Z,100146.31
2023-01-13T04:48:05.565Z,100144.59
2023-01-13T04:53:13.697Z,100142.88
2023-01-13T04:58:20.046Z,100139.41
2023-01-13T05:03:27.121Z,100141.13
2023-01-13T05:08:35.222Z,100142.88
2023-01-13T05:14:10.106Z,100135.94
2023-01-13T05:19:16.355Z,100131.63
2023-01-13T05:24:41.390Z,100134.22
2023-01-13T05:29:50.498Z,100143.72
2023-01-13T05:34:57.332Z,100139.38
2023-01-13T05:40:23.496Z,100142.00
2023-01-13T05:45:32.145Z,100139.38
2023-01-13T05:50:38.648Z,100144.56
2023-01-13T05:55:47.311Z,100154.91
2023-01-13T06:00:54.760Z,100141.94
2023-01-13T06:06:04.517Z,100153.16
2023-01-13T06:11:12.976Z,100151.41
2023-01-13T06:16:19.734Z,100153.19
2023-01-13T06:21:26.393Z,100154.03
2023-01-13T06:26:39.034Z,100166.97
2023-01-13T06:31:45.985Z,100170.41
2023-01-13T06:36:57.141Z,100168.66
2023-01-13T06:42:23.752Z,100171.25
2023-01-13T06:47:30.255Z,100168.63
2023-01-13T06:52:36.481Z,100162.56
2023-01-13T06:57:53.797Z,100172.03
2023-01-13T07:03:12.569Z,100164.25
2023-01-13T07:08:19.085Z,100159.09
2023-01-13T07:13:44.328Z,100164.25
2023-01-13T07:18:53.685Z,100166.84
2023-01-13T07:24:00.457Z,100169.44
2023-01-13T07:29:08.697Z,100169.41
2023-01-13T07:34:15.453Z,100167.66
2023-01-13T07:39:22.019Z,100166.81
2023-01-13T07:44:30.063Z,100171.06
2023-01-13T07:49:36.272Z,100168.47
2023-01-13T07:54:42.617Z,100164.97
2023-01-13T07:59:50.372Z,100167.53
2023-01-13T08:04:56.738Z,100168.34
2023-01-13T08:10:03.314Z,100170.06
2023-01-13T08:15:13.053Z,100174.38
2023-01-13T08:20:19.625Z,100163.97
2023-01-13T08:25:26.666Z,100171.72
2023-01-13T08:30:34.820Z,100169.13
2023-01-13T08:35:42.485Z,100178.59
2023-01-13T08:40:49.114Z,100191.53
2023-01-13T08:46:05.002Z,100188.00
2023-01-13T08:51:13.042Z,100185.41
2023-01-13T08:56:19.734Z,100188.75
2023-01-13T09:01:28.424Z,100179.22
2023-01-13T09:06:35.191Z,100190.44
2023-01-13T09:12:02.406Z,100186.09
2023-01-13T09:17:10.615Z,100195.50
2023-01-13T09:22:19.611Z,100180.84
2023-01-13T09:27:25.818Z,100185.09
2023-01-13T09:32:33.586Z,100193.63
2023-01-13T09:37:42.898Z,100192.81
2023-01-13T09:43:13.534Z,100185.03
2023-01-13T09:48:28.563Z,100184.16
2023-01-13T09:53:49.800Z,100176.38
2023-01-13T09:58:56.375Z,100173.75
2023-01-13T10:04:11.836Z,100163.38
2023-01-13T10:09:24.591Z,100172.84
2023-01-13T10:14:43.023Z,100164.19
2023-01-13T10:19:58.278Z,100160.59
2023-01-13T10:25:22.407Z,100160.56
2023-01-13T10:30:37.996Z,100143.22
2023-01-13T10:35:56.856Z,100142.22
2023-01-13T10:41:07.839Z,100143.88
2023-01-13T10:46:17.062Z,100146.44
2023-01-13T10:51:27.816Z,100141.19
2023-01-13T10:56:35.880Z,100145.44
2023-01-13T11:01:45.385Z,100141.94
2023-01-13T11:06:53.352Z,100130.63
2023-01-13T11:12:00.856Z,100126.25
2023-01-13T11:17:40.877Z,100113.25
2023-01-13T11:22:51.676Z,100128.72
2023-01-13T11:28:04.913Z,100121.78
2023-01-13T11:33:33.856Z,100120.00
2023-01-13T11:38:49.710Z,100108.72
2023-01-13T11:44:05.876Z,100099.94
2023-01-13T11:49:22.333Z,100098.06
2023-01-13T11:54:52.663Z,100094.47
2023-01-13T12:00:24.931Z,100095.31
2023-01-13T12:05:38.472Z,100095.28
2023-01-13T12:11:03.694Z,100095.16
2023-01-13T12:16:24.972Z,100094.19
2023-01-13T12:21:35.561Z,100094.13
2023-01-13T12:26:50.630Z,100090.63
2023-01-13T12:31:57.384Z,100096.56
2023-01-13T12:37:13.842Z,100094.81
2023-01-13T12:42:46.628Z,100086.16
2023-01-13T12:47:53.182Z,100087.88
2023-01-13T12:53:01.246Z,100089.63
2023-01-13T12:58:30.220Z,100100.91
2023-01-13T13:03:39.258Z,100103.50
2023-01-13T13:09:05.945Z,100099.22
2023-01-13T13:14:39.873Z,100109.56
2023-01-13T13:19:49.746Z,100119.00
2023-01-13T13:25:26.777Z,100112.03
2023-01-13T13:30:40.474Z,100110.34
2023-01-13T13:36:15.561Z,100111.19
2023-01-13T13:41:42.461Z,100109.53
2023-01-13T13:46:51.128Z,100118.19
2023-01-13T13:52:05.254Z,100113.06
2023-01-13T13:57:21.859Z,100119.09
2023-01-13T14:02:33.455Z,100120.00
2023-01-13T14:07:51.241Z,100119.16
2023-01-13T14:12:58.160Z,100121.84
2023-01-13T14:18:14.061Z,100115.03
2023-01-13T14:23:28.208Z,100113.34
2023-01-13T14:28:39.729Z,100122.91
2023-01-13T14:33:50.636Z,100126.41
2023-01-13T14:39:35.572Z,100129.88
2023-01-13T14:44:47.403Z,100134.22
2023-01-13T14:50:03.285Z,100133.41
2023-01-13T14:55:30.053Z,100127.34
2023-01-13T15:00:36.923Z,100135.16
2023-01-13T15:05:49.732Z,100125.69
2023-01-13T15:11:01.228Z,100127.41
2023-01-13T15:16:16.490Z,100130.03
2023-01-13T15:21:25.367Z,100136.13
2023-01-13T15:26:35.290Z,100138.72
2023-01-13T15:31:41.844Z,100126.59
2023-01-13T15:36:49.944Z,100124.84
2023-01-13T15:42:21.993Z,100126.59
2023-01-13T15:47:29.917Z,100128.34
2023-01-13T15:52:37.980Z,100128.38
2023-01-13T15:57:50.375Z,100127.53
2023-01-13T16:02:56.945Z,100131.88
2023-01-13T16:08:06.177Z,100135.38
2023-01-13T16:13:12.684Z,100140.56
2023-01-13T16:18:24.580Z,100134.53
2023-01-13T16:23:34.141Z,100145.75
2023-01-13T16:28:41.082Z,100154.38
2023-01-13T16:33:47.759Z,100153.59
2023-01-13T16:38:56.552Z,100156.19
2023-01-13T16:44:06.335Z,100157.88
2023-01-13T16:49:18.987Z,100164.78
2023-01-13T16:54:27.150Z,100165.63
2023-01-13T16:59:33.677Z,100166.56
2023-01-13T17:04:40.440Z,100175.22
2023-01-13T17:09:48.688Z,100177.81
2023-01-13T17:14:55.795Z,100185.59
2023-01-13T17:20:02.570Z,100186.47
2023-01-13T17:25:14.381Z,100179.59
2023-01-13T17:30:21.791Z,100179.59
2023-01-13T17:35:30.262Z,100173.56
2023-01-13T17:40:42.742Z,100166.56
2023-01-13T17:45:51.147Z,100156.19
2023-01-13T17:50:59.935Z,100157.88
2023-01-13T17:56:15.647Z,100169.13
2023-01-13T18:01:27.141Z,100180.38
2023-01-13T18:06:37.217Z,100163.03
2023-01-13T18:11:49.102Z,100173.41
2023-01-13T18:16:57.329Z,100187.19
2023-01-13T18:22:23.346Z,100191.53
2023-01-13T18:27:35.474Z,100190.72
2023-01-13T18:32:44.707Z,100184.63
2023-01-13T18:37:53.762Z,100188.09
2023-01-13T18:43:02.696Z,100192.44
2023-01-13T18:48:11.286Z,100201.97
2023-01-13T18:53:18.573Z,100204.50
2023-01-13T18:58:31.198Z,100205.31
2023-01-13T19:03:39.269Z,100207.91
2023-01-13T19:08:48.914Z,100198.38
2023-01-13T19:13:58.480Z,100205.31
2023-01-13T19:19:07.024Z,100211.34
2023-01-13T19:24:15.511Z,100223.50
2023-01-13T19:29:24.486Z,100236.47
2023-01-13T19:34:32.466Z,100242.56
2023-01-13T19:39:42.261Z,100234.75
2023-01-13T19:45:09.460Z,100233.88
2023-01-13T19:50:17.664Z,100247.75
2023-01-13T19:55:25.485Z,100253.81
2023-01-13T20:00:37.384Z,100250.34
2023-01-13T20:05:45.915Z,100261.63
2023-01-13T20:11:15.824Z,100272.00
2023-01-13T20:16:27.191Z,100266.81
2023-01-13T20:21:38.403Z,100283.28
2023-01-13T20:26:55.174Z,100290.28
2023-01-13T20:32:04.860Z,100308.47
2023-01-13T20:37:13.389Z,100308.53
2023-01-13T20:42:43.452Z,100320.69
2023-01-13T20:48:00.568Z,100334.56
2023-01-13T20:53:08.521Z,100343.28
2023-01-13T20:58:16.052Z,100339.88
2023-01-13T21:03:25.881Z,100336.44
2023-01-13T21:08:33.909Z,100343.41
2023-01-13T21:13:58.036Z,100345.19
2023-01-13T21:19:10.929Z,100353.84
2023-01-13T21:24:19.232Z,100349.59
2023-01-13T21:29:27.145Z,100357.38
2023-01-13T21:34:36.210Z,100361.72
2023-01-13T21:39:43.692Z,100358.31
2023-01-13T21:45:08.022Z,100361.78
2023-01-13T21:50:18.108Z,100364.38
2023-01-13T21:55:28.872Z,100350.59
2023-01-13T22:00:36.080Z,100347.19
2023-01-13T22:05:44.619Z,100357.56
2023-01-13T22:10:58.709Z,100362.75
2023-01-13T22:16:06.800Z,100359.38
2023-01-13T22:21:15.481Z,100361.16
2023-01-13T22:26:22.540Z,100362.91
2023-01-13T22:31:31.850Z,100369.00
2023-01-13T22:36:40.775Z,100376.81
2023-01-13T22:41:47.767Z,100380.31
2023-01-13T22:46:54.927Z,100386.47
2023-01-13T22:52:03.597Z,100385.66
2023-01-13T22:57:10.543Z,100390.00
2023-01-13T23:02:17.355Z,100396.06
2023-01-13T23:07:25.939Z,100407.34
2023-01-13T23:12:32.849Z,100400.47
2023-01-13T23:17:40.793Z,100403.06
2023-01-13T23:22:50.759Z,100402.19
2023-01-13T23:27:57.757Z,100404.81
2023-01-13T23:33:05.904Z,100417.81
2023-01-13T23:38:14.409Z,100417.81
2023-01-13T23:43:22.583Z,100415.25
2023-01-13T23:48:29.599Z,100411.78
2023-01-13T23:53:40.354Z,100412.69
2023-01-13T23:58:47.999Z,100415.28
